createdAt,value
2022-08-18T00:04:52.774Z,18.5
2022-08-18T00:16:05.187Z,18.6
2022-08-18T00:21:48.275Z,18.1
2022-08-18T00:27:29.050Z,18.1
2022-08-18T00:33:11.485Z,18.1
2022-08-18T00:38:56.882Z,18.1
2022-08-18T00:44:47.862Z,17.6
2022-08-18T00:50:53.386Z,17.5
2022-08-18T00:56:44.346Z,17.4
2022-08-18T01:02:21.936Z,17.6
2022-08-18T01:07:59.832Z,17.8
2022-08-18T01:14:14.413Z,17.9
2022-08-18T01:20:04.438Z,17.8
2022-08-18T01:25:42.593Z,17.5
2022-08-18T01:31:11.561Z,17.6
2022-08-18T01:37:09.682Z,17.6
2022-08-18T01:44:52.478Z,17.6
2022-08-18T01:50:48.756Z,17.4
2022-08-18T01:56:28.487Z,17.4
2022-08-18T02:02:10.243Z,17.4
2022-08-18T02:08:46.393Z,17.5
2022-08-18T02:14:36.098Z,17.3
2022-08-18T02:20:32.936Z,17.1
2022-08-18T02:25:57.267Z,16.7
2022-08-18T02:31:38.372Z,16.8
2022-08-18T02:37:16.374Z,16.8
2022-08-18T02:42:58.418Z,16.5
2022-08-18T02:48:21.899Z,16.3
2022-08-18T02:54:01.083Z,16.3
2022-08-18T02:59:50.121Z,16.2
2022-08-18T03:05:31.501Z,16.3
2022-08-18T03:11:39.563Z,16.3
2022-08-18T03:17:27.540Z,16.3
2022-08-18T03:24:00.434Z,16.3
2022-08-18T03:29:48.178Z,16.3
2022-08-18T03:35:18.468Z,16.4
2022-08-18T03:40:56.133Z,16.2
2022-08-18T03:47:36.997Z,16.3
2022-08-18T03:53:14.598Z,16.2
2022-08-18T03:58:52.575Z,16.4
2022-08-18T04:04:35.519Z,16.3
2022-08-18T04:10:35.909Z,16.4
2022-08-18T04:16:15.546Z,16.4
2022-08-18T04:22:34.455Z,16.6
2022-08-18T04:28:20.645Z,16.8
2022-08-18T04:34:02.104Z,17.1
2022-08-18T04:39:29.631Z,17.3
2022-08-18T04:45:17.025Z,17.7
2022-08-18T04:50:57.253Z,17.8
2022-08-18T04:57:55.947Z,17.9
2022-08-18T05:03:33.417Z,18.6
2022-08-18T05:09:09.947Z,18.4
2022-08-18T05:14:48.751Z,19.1
2022-08-18T05:21:13.095Z,19.3
2022-08-18T05:27:11.976Z,19.7
2022-08-18T05:33:38.043Z,19.9
2022-08-18T05:39:20.535Z,20.4
2022-08-18T05:45:00.214Z,21.3
2022-08-18T05:50:42.493Z,21.5
2022-08-18T05:56:26.577Z,21.8
2022-08-18T06:02:06.936Z,21.8
2022-08-18T06:07:50.410Z,22.8
2022-08-18T06:13:44.495Z,22.8
2022-08-18T06:19:12.344Z,23.2
2022-08-18T06:24:57.321Z,23.3
2022-08-18T06:30:34.321Z,24
2022-08-18T06:36:28.130Z,24.4
2022-08-18T06:42:35.652Z,24.3
2022-08-18T06:48:32.322Z,24.8
2022-08-18T06:54:34.405Z,25
2022-08-18T07:00:24.961Z,25.1
2022-08-18T07:06:05.506Z,26.4
2022-08-18T07:11:54.419Z,26.3
2022-08-18T07:18:24.247Z,26.8
2022-08-18T07:24:37.672Z,27.2
2022-08-18T07:29:46.650Z,28
2022-08-18T07:35:48.047Z,27.7
2022-08-18T07:41:52.265Z,28
2022-08-18T07:48:04.040Z,29.6
2022-08-18T07:56:16.615Z,29.9
2022-08-18T08:02:31.948Z,29.6
2022-08-18T08:08:57.997Z,30.8
2022-08-18T08:15:26.914Z,30.6
2022-08-18T08:21:43.648Z,31.7
2022-08-18T08:28:00.463Z,31.6
2022-08-18T08:33:54.914Z,32
2022-08-18T08:40:40.093Z,31.8
2022-08-18T08:46:43.286Z,31.7
2022-08-18T08:52:36.689Z,32.5
2022-08-18T08:58:19.767Z,32.9
2022-08-18T09:04:23.000Z,33.4
2022-08-18T09:10:15.933Z,31.9
2022-08-18T09:15:52.399Z,32.8
2022-08-18T09:21:39.396Z,33.4
2022-08-18T09:27:16.133Z,31.6
2022-08-18T13:07:19.015Z,36.6
2022-08-18T13:14:43.790Z,35.9
2022-08-18T13:21:27.633Z,37.1
2022-08-18T13:28:08.697Z,37.3
2022-08-18T13:35:44.188Z,34.7
2022-08-18T13:41:49.488Z,36.1
2022-08-18T13:48:25.368Z,36
2022-08-18T13:54:45.993Z,36.3
2022-08-18T14:01:37.595Z,36.5
2022-08-18T14:08:26.599Z,36.4
2022-08-18T14:14:52.825Z,36
2022-08-18T14:20:27.297Z,34.8
2022-08-18T14:26:35.490Z,35.6
2022-08-18T14:33:11.501Z,36.2
2022-08-18T14:40:28.751Z,36.3
2022-08-18T14:47:53.907Z,35.4
2022-08-18T14:54:08.892Z,35.5
2022-08-18T15:00:13.866Z,34.8
2022-08-18T15:06:59.662Z,34.8
2022-08-18T15:13:21.621Z,34.7
2022-08-18T15:20:50.935Z,35.1
2022-08-18T15:27:03.235Z,34.9
2022-08-18T15:34:20.618Z,33.6
2022-08-18T15:41:09.315Z,33.6
2022-08-18T15:47:28.442Z,33.2
2022-08-18T15:54:04.746Z,33
2022-08-18T16:00:46.868Z,32.8
2022-08-18T16:07:32.443Z,32.4
2022-08-18T16:13:36.440Z,32.6
2022-08-18T16:19:42.235Z,32.3
2022-08-18T16:25:28.035Z,32.3
2022-08-18T16:31:09.136Z,32
2022-08-18T16:36:52.297Z,31.6
2022-08-18T16:42:35.391Z,31.3
2022-08-18T16:48:16.844Z,30.6
2022-08-18T16:54:13.007Z,30.2
2022-08-18T17:00:17.122Z,29.9
2022-08-18T17:06:21.705Z,29.5
2022-08-18T17:12:24.556Z,29.1
2022-08-18T17:18:02.390Z,28.8
2022-08-18T17:23:43.785Z,28.3
2022-08-18T17:30:18.728Z,28
2022-08-18T17:36:02.168Z,27.9
2022-08-18T17:41:40.520Z,27.5
2022-08-18T17:47:39.989Z,27.1
2022-08-18T17:53:44.481Z,26.9
2022-08-18T18:00:08.086Z,26.7
2022-08-18T18:05:56.115Z,26.4
2022-08-18T18:12:06.719Z,26.3
2022-08-18T18:17:47.468Z,25.9
2022-08-18T18:24:02.294Z,25.7
2022-08-18T18:29:55.419Z,25.8
2022-08-18T18:35:19.601Z,25.6
2022-08-18T18:41:03.883Z,25.6
2022-08-18T18:46:51.842Z,25.4
2022-08-18T18:53:18.627Z,25.4
2022-08-18T18:59:00.058Z,25.3
2022-08-18T19:05:09.478Z,25.3
2022-08-18T19:10:54.287Z,25.3
2022-08-18T19:17:14.138Z,25.1
2022-08-18T19:25:13.181Z,24.9
2022-08-18T19:31:30.338Z,24.8
2022-08-18T19:38:21.413Z,24.8
2022-08-18T19:44:06.141Z,24.7
2022-08-18T19:49:53.318Z,24.8
2022-08-18T19:56:12.670Z,25.1
2022-08-18T20:02:11.380Z,25.2
2022-08-18T20:08:09.823Z,24.4
2022-08-18T20:13:59.927Z,24.3
2022-08-18T20:20:06.382Z,24.3
2022-08-18T20:25:32.613Z,23.9
2022-08-18T20:31:17.066Z,23.6
2022-08-18T20:36:53.982Z,23.3
2022-08-18T20:42:36.750Z,23.1
2022-08-18T20:48:39.863Z,22.8
2022-08-18T20:54:57.314Z,22.4
2022-08-18T21:01:00.130Z,22.3
2022-08-18T21:06:43.738Z,21.9
2022-08-18T21:12:52.287Z,21.6
2022-08-18T21:18:31.781Z,21.3
2022-08-18T21:24:18.675Z,21.2
2022-08-18T21:30:05.604Z,21
2022-08-18T21:36:02.449Z,20.8
2022-08-18T21:41:58.593Z,20.9
2022-08-18T21:47:24.059Z,20.8
2022-08-18T21:52:49.536Z,20.9
2022-08-18T21:58:32.875Z,20.9
2022-08-18T22:04:11.912Z,20.9
2022-08-18T22:10:22.117Z,20.8
2022-08-18T22:16:55.187Z,20.6
2022-08-18T22:22:05.133Z,20.4
2022-08-18T22:27:43.927Z,20.4
2022-08-18T22:33:27.539Z,20.6
2022-08-18T22:39:04.234Z,20.5
2022-08-18T22:44:29.433Z,20.5
2022-08-18T22:50:17.577Z,20.4
2022-08-18T22:55:58.154Z,20.3
2022-08-18T23:02:38.666Z,19.9
2022-08-18T23:07:46.210Z,20
2022-08-18T23:13:37.267Z,20
2022-08-18T23:19:07.735Z,19.8
2022-08-18T23:24:58.726Z,19.6
2022-08-18T23:30:46.745Z,19.5
2022-08-18T23:36:30.313Z,19.7
2022-08-18T23:42:16.433Z,19.7
2022-08-18T23:47:56.398Z,19.5
2022-08-18T23:53:39.858Z,18.9
2022-08-18T23:59:14.846Z,19.1
